sensor_id;sensor_type;location;lat;lon;timestamp;P1;durP1;ratioP1;P2;durP2;ratioP2
21589;SDS011;10957;50.968;6.828;2023-04-23T00:00:58;5.57;;;5.28;;
21589;SDS011;10957;50.968;6.828;2023-04-23T00:06:05;5.10;;;4.82;;
21589;SDS011;10957;50.968;6.828;2023-04-23T00:11:08;5.25;;;5.00;;
21589;SDS011;10957;50.968;6.828;2023-04-23T00:16:10;5.72;;;5.43;;
21589;SDS011;10957;50.968;6.828;2023-04-23T00:21:11;5.10;;;4.80;;
21589;SDS011;10957;50.968;6.828;2023-04-23T00:26:13;5.03;;;4.82;;
21589;SDS011;10957;50.968;6.828;2023-04-23T00:31:14;5.28;;;4.97;;
21589;SDS011;10957;50.968;6.828;2023-04-23T00:36:15;4.90;;;4.70;;
21589;SDS011;10957;50.968;6.828;2023-04-23T00:41:16;5.13;;;4.93;;
21589;SDS011;10957;50.968;6.828;2023-04-23T00:46:19;4.70;;;4.50;;
21589;SDS011;10957;50.968;6.828;2023-04-23T00:51:21;4.68;;;4.47;;
21589;SDS011;10957;50.968;6.828;2023-04-23T00:56:24;4.82;;;4.63;;
21589;SDS011;10957;50.968;6.828;2023-04-23T01:01:26;5.70;;;5.30;;
21589;SDS011;10957;50.968;6.828;2023-04-23T01:06:28;4.63;;;4.43;;
21589;SDS011;10957;50.968;6.828;2023-04-23T01:11:31;5.05;;;4.85;;
21589;SDS011;10957;50.968;6.828;2023-04-23T01:16:33;5.45;;;5.22;;
21589;SDS011;10957;50.968;6.828;2023-04-23T01:21:36;4.90;;;4.70;;
21589;SDS011;10957;50.968;6.828;2023-04-23T01:26:41;4.60;;;4.40;;
21589;SDS011;10957;50.968;6.828;2023-04-23T01:31:43;4.90;;;4.70;;
21589;SDS011;10957;50.968;6.828;2023-04-23T01:36:44;4.78;;;4.57;;
21589;SDS011;10957;50.968;6.828;2023-04-23T01:41:52;4.90;;;4.70;;
21589;SDS011;10957;50.968;6.828;2023-04-23T01:46:53;4.88;;;4.68;;
21589;SDS011;10957;50.968;6.828;2023-04-23T01:51:56;5.38;;;5.15;;
21589;SDS011;10957;50.968;6.828;2023-04-23T01:56:57;5.32;;;5.13;;
21589;SDS011;10957;50.968;6.828;2023-04-23T02:01:58;5.43;;;5.18;;
21589;SDS011;10957;50.968;6.828;2023-04-23T02:07:00;4.70;;;4.50;;
21589;SDS011;10957;50.968;6.828;2023-04-23T02:12:01;4.95;;;4.72;;
21589;SDS011;10957;50.968;6.828;2023-04-23T02:17:03;4.80;;;4.60;;
21589;SDS011;10957;50.968;6.828;2023-04-23T02:22:05;5.72;;;5.45;;
21589;SDS011;10957;50.968;6.828;2023-04-23T02:27:09;5.38;;;5.18;;
21589;SDS011;10957;50.968;6.828;2023-04-23T02:32:10;5.00;;;4.80;;
21589;SDS011;10957;50.968;6.828;2023-04-23T02:37:12;5.10;;;4.78;;
21589;SDS011;10957;50.968;6.828;2023-04-23T02:42:13;5.55;;;5.25;;
21589;SDS011;10957;50.968;6.828;2023-04-23T02:47:14;5.25;;;5.05;;
21589;SDS011;10957;50.968;6.828;2023-04-23T02:52:18;4.78;;;4.57;;
21589;SDS011;10957;50.968;6.828;2023-04-23T02:57:20;5.15;;;4.88;;
21589;SDS011;10957;50.968;6.828;2023-04-23T03:02:21;4.80;;;4.60;;
21589;SDS011;10957;50.968;6.828;2023-04-23T03:07:22;5.38;;;5.18;;
21589;SDS011;10957;50.968;6.828;2023-04-23T03:12:24;6.05;;;5.65;;
21589;SDS011;10957;50.968;6.828;2023-04-23T03:17:25;5.47;;;5.18;;
21589;SDS011;10957;50.968;6.828;2023-04-23T03:22:26;5.00;;;4.80;;
21589;SDS011;10957;50.968;6.828;2023-04-23T03:27:27;5.55;;;5.35;;
21589;SDS011;10957;50.968;6.828;2023-04-23T03:32:29;5.82;;;5.53;;
21589;SDS011;10957;50.968;6.828;2023-04-23T03:37:30;5.15;;;4.80;;
21589;SDS011;10957;50.968;6.828;2023-04-23T03:42:32;5.15;;;4.95;;
21589;SDS011;10957;50.968;6.828;2023-04-23T03:47:34;4.95;;;4.75;;
21589;SDS011;10957;50.968;6.828;2023-04-23T03:52:36;5.03;;;4.82;;
21589;SDS011;10957;50.968;6.828;2023-04-23T03:57:39;5.43;;;5.13;;
21589;SDS011;10957;50.968;6.828;2023-04-23T04:02:58;5.15;;;4.95;;
21589;SDS011;10957;50.968;6.828;2023-04-23T04:08:01;5.85;;;5.55;;
21589;SDS011;10957;50.968;6.828;2023-04-23T04:13:04;5.30;;;5.10;;
21589;SDS011;10957;50.968;6.828;2023-04-23T04:18:05;5.22;;;5.03;;
21589;SDS011;10957;50.968;6.828;2023-04-23T04:23:07;5.50;;;5.28;;
21589;SDS011;10957;50.968;6.828;2023-04-23T04:28:08;5.40;;;5.10;;
21589;SDS011;10957;50.968;6.828;2023-04-23T04:33:11;5.82;;;5.53;;
21589;SDS011;10957;50.968;6.828;2023-04-23T04:38:14;5.85;;;5.55;;
21589;SDS011;10957;50.968;6.828;2023-04-23T04:43:15;5.82;;;5.55;;
21589;SDS011;10957;50.968;6.828;2023-04-23T04:48:18;5.85;;;5.55;;
21589;SDS011;10957;50.968;6.828;2023-04-23T04:53:19;5.20;;;5.00;;
21589;SDS011;10957;50.968;6.828;2023-04-23T04:58:20;5.20;;;4.90;;
21589;SDS011;10957;50.968;6.828;2023-04-23T05:03:21;5.00;;;4.80;;
21589;SDS011;10957;50.968;6.828;2023-04-23T05:08:23;5.18;;;4.97;;
21589;SDS011;10957;50.968;6.828;2023-04-23T05:13:24;5.93;;;5.63;;
21589;SDS011;10957;50.968;6.828;2023-04-23T05:18:26;5.78;;;5.47;;
21589;SDS011;10957;50.968;6.828;2023-04-23T05:23:27;5.60;;;5.32;;
21589;SDS011;10957;50.968;6.828;2023-04-23T05:28:28;4.75;;;4.55;;
21589;SDS011;10957;50.968;6.828;2023-04-23T05:33:30;5.20;;;5.00;;
21589;SDS011;10957;50.968;6.828;2023-04-23T05:38:31;4.75;;;4.55;;
21589;SDS011;10957;50.968;6.828;2023-04-23T05:43:33;5.35;;;5.05;;
21589;SDS011;10957;50.968;6.828;2023-04-23T05:48:34;4.80;;;4.60;;
21589;SDS011;10957;50.968;6.828;2023-04-23T05:53:35;4.88;;;4.60;;
21589;SDS011;10957;50.968;6.828;2023-04-23T05:58:36;5.03;;;4.78;;
21589;SDS011;10957;50.968;6.828;2023-04-23T06:03:38;5.35;;;5.05;;
21589;SDS011;10957;50.968;6.828;2023-04-23T06:08:44;4.80;;;4.60;;
21589;SDS011;10957;50.968;6.828;2023-04-23T06:13:46;5.15;;;4.85;;
21589;SDS011;10957;50.968;6.828;2023-04-23T06:18:47;5.40;;;5.10;;
21589;SDS011;10957;50.968;6.828;2023-04-23T06:23:48;5.00;;;4.80;;
21589;SDS011;10957;50.968;6.828;2023-04-23T06:28:50;4.60;;;4.40;;
21589;SDS011;10957;50.968;6.828;2023-04-23T06:34:06;5.30;;;4.95;;
21589;SDS011;10957;50.968;6.828;2023-04-23T06:39:07;4.32;;;4.13;;
21589;SDS011;10957;50.968;6.828;2023-04-23T06:44:09;4.70;;;4.50;;
21589;SDS011;10957;50.968;6.828;2023-04-23T06:49:14;4.50;;;4.20;;
21589;SDS011;10957;50.968;6.828;2023-04-23T06:54:15;4.07;;;3.88;;
21589;SDS011;10957;50.968;6.828;2023-04-23T06:59:16;4.10;;;3.90;;
21589;SDS011;10957;50.968;6.828;2023-04-23T07:04:21;4.03;;;3.83;;
21589;SDS011;10957;50.968;6.828;2023-04-23T07:09:23;3.65;;;3.50;;
21589;SDS011;10957;50.968;6.828;2023-04-23T07:14:24;3.45;;;3.35;;
21589;SDS011;10957;50.968;6.828;2023-04-23T07:19:30;3.80;;;3.65;;
21589;SDS011;10957;50.968;6.828;2023-04-23T07:24:35;3.60;;;3.50;;
21589;SDS011;10957;50.968;6.828;2023-04-23T07:29:36;3.42;;;3.33;;
21589;SDS011;10957;50.968;6.828;2023-04-23T07:34:38;3.33;;;3.22;;
21589;SDS011;10957;50.968;6.828;2023-04-23T07:39:39;3.22;;;3.13;;
21589;SDS011;10957;50.968;6.828;2023-04-23T07:44:41;3.88;;;3.67;;
21589;SDS011;10957;50.968;6.828;2023-04-23T07:49:42;3.20;;;3.10;;
21589;SDS011;10957;50.968;6.828;2023-04-23T07:54:43;3.20;;;3.00;;
21589;SDS011;10957;50.968;6.828;2023-04-23T07:59:45;3.80;;;3.60;;
21589;SDS011;10957;50.968;6.828;2023-04-23T08:04:47;2.75;;;2.65;;
21589;SDS011;10957;50.968;6.828;2023-04-23T08:09:48;3.53;;;3.33;;
21589;SDS011;10957;50.968;6.828;2023-04-23T08:14:49;2.70;;;2.60;;
21589;SDS011;10957;50.968;6.828;2023-04-23T08:19:56;3.10;;;2.97;;
21589;SDS011;10957;50.968;6.828;2023-04-23T08:24:58;2.75;;;2.63;;
21589;SDS011;10957;50.968;6.828;2023-04-23T08:29:59;3.42;;;3.25;;
21589;SDS011;10957;50.968;6.828;2023-04-23T08:35:00;2.65;;;2.55;;
21589;SDS011;10957;50.968;6.828;2023-04-23T08:40:01;2.60;;;2.50;;
21589;SDS011;10957;50.968;6.828;2023-04-23T08:45:04;2.80;;;2.70;;
21589;SDS011;10957;50.968;6.828;2023-04-23T08:50:06;3.20;;;3.10;;
21589;SDS011;10957;50.968;6.828;2023-04-23T08:55:12;3.53;;;3.33;;
21589;SDS011;10957;50.968;6.828;2023-04-23T09:00:17;2.80;;;2.70;;
21589;SDS011;10957;50.968;6.828;2023-04-23T09:05:20;3.15;;;3.00;;
21589;SDS011;10957;50.968;6.828;2023-04-23T09:10:21;2.88;;;2.78;;
21589;SDS011;10957;50.968;6.828;2023-04-23T09:15:23;3.13;;;3.03;;
21589;SDS011;10957;50.968;6.828;2023-04-23T09:20:24;3.35;;;3.22;;
21589;SDS011;10957;50.968;6.828;2023-04-23T09:25:25;2.90;;;2.80;;
21589;SDS011;10957;50.968;6.828;2023-04-23T09:30:27;3.40;;;3.20;;
21589;SDS011;10957;50.968;6.828;2023-04-23T09:35:29;3.60;;;3.40;;
21589;SDS011;10957;50.968;6.828;2023-04-23T09:40:35;3.30;;;3.20;;
21589;SDS011;10957;50.968;6.828;2023-04-23T09:45:46;3.05;;;2.95;;
21589;SDS011;10957;50.968;6.828;2023-04-23T09:50:48;3.25;;;2.80;;
21589;SDS011;10957;50.968;6.828;2023-04-23T09:55:50;2.72;;;2.63;;
21589;SDS011;10957;50.968;6.828;2023-04-23T10:00:53;3.10;;;3.00;;
21589;SDS011;10957;50.968;6.828;2023-04-23T10:06:06;3.30;;;3.20;;
21589;SDS011;10957;50.968;6.828;2023-04-23T10:11:17;2.70;;;2.60;;
21589;SDS011;10957;50.968;6.828;2023-04-23T10:16:18;3.20;;;3.10;;
21589;SDS011;10957;50.968;6.828;2023-04-23T10:21:23;3.30;;;3.10;;
21589;SDS011;10957;50.968;6.828;2023-04-23T10:26:28;3.15;;;3.05;;
21589;SDS011;10957;50.968;6.828;2023-04-23T10:31:32;3.28;;;3.08;;
21589;SDS011;10957;50.968;6.828;2023-04-23T10:36:36;3.10;;;3.00;;
21589;SDS011;10957;50.968;6.828;2023-04-23T10:41:38;3.40;;;3.30;;
21589;SDS011;10957;50.968;6.828;2023-04-23T10:46:51;3.55;;;3.45;;
21589;SDS011;10957;50.968;6.828;2023-04-23T10:51:57;4.30;;;3.42;;
21589;SDS011;10957;50.968;6.828;2023-04-23T10:57:03;3.20;;;3.00;;
21589;SDS011;10957;50.968;6.828;2023-04-23T11:07:09;3.00;;;2.90;;
21589;SDS011;10957;50.968;6.828;2023-04-23T11:22:34;3.40;;;3.30;;
21589;SDS011;10957;50.968;6.828;2023-04-23T11:27:43;3.75;;;3.58;;
21589;SDS011;10957;50.968;6.828;2023-04-23T11:32:51;3.83;;;3.58;;
21589;SDS011;10957;50.968;6.828;2023-04-23T11:37:54;3.75;;;3.55;;
21589;SDS011;10957;50.968;6.828;2023-04-23T11:42:56;3.20;;;3.10;;
21589;SDS011;10957;50.968;6.828;2023-04-23T11:47:59;3.38;;;3.28;;
21589;SDS011;10957;50.968;6.828;2023-04-23T11:53:04;16.33;;;3.33;;
21589;SDS011;10957;50.968;6.828;2023-04-23T11:58:07;3.40;;;3.30;;
21589;SDS011;10957;50.968;6.828;2023-04-23T12:03:08;3.50;;;3.40;;
21589;SDS011;10957;50.968;6.828;2023-04-23T12:13:13;2.95;;;2.85;;
21589;SDS011;10957;50.968;6.828;2023-04-23T12:18:18;3.10;;;3.00;;
21589;SDS011;10957;50.968;6.828;2023-04-23T12:23:26;3.17;;;3.08;;
21589;SDS011;10957;50.968;6.828;2023-04-23T12:28:27;3.00;;;2.90;;
21589;SDS011;10957;50.968;6.828;2023-04-23T12:33:29;3.50;;;3.30;;
21589;SDS011;10957;50.968;6.828;2023-04-23T12:38:30;3.40;;;3.30;;
21589;SDS011;10957;50.968;6.828;2023-04-23T12:43:32;3.10;;;3.00;;
21589;SDS011;10957;50.968;6.828;2023-04-23T12:48:33;3.20;;;3.10;;
21589;SDS011;10957;50.968;6.828;2023-04-23T12:53:34;3.20;;;3.10;;
21589;SDS011;10957;50.968;6.828;2023-04-23T12:58:35;3.00;;;2.90;;
21589;SDS011;10957;50.968;6.828;2023-04-23T13:03:37;3.20;;;3.10;;
21589;SDS011;10957;50.968;6.828;2023-04-23T13:08:38;3.15;;;3.05;;
21589;SDS011;10957;50.968;6.828;2023-04-23T13:13:39;3.40;;;3.22;;
21589;SDS011;10957;50.968;6.828;2023-04-23T13:18:40;3.50;;;3.40;;
21589;SDS011;10957;50.968;6.828;2023-04-23T13:23:42;3.50;;;3.40;;
21589;SDS011;10957;50.968;6.828;2023-04-23T13:28:43;3.40;;;3.30;;
21589;SDS011;10957;50.968;6.828;2023-04-23T13:33:44;3.05;;;2.95;;
21589;SDS011;10957;50.968;6.828;2023-04-23T13:38:46;3.00;;;2.90;;
21589;SDS011;10957;50.968;6.828;2023-04-23T13:43:47;3.72;;;3.53;;
21589;SDS011;10957;50.968;6.828;2023-04-23T13:48:48;2.90;;;2.80;;
21589;SDS011;10957;50.968;6.828;2023-04-23T13:53:50;3.08;;;2.97;;
21589;SDS011;10957;50.968;6.828;2023-04-23T13:58:51;3.00;;;2.90;;
21589;SDS011;10957;50.968;6.828;2023-04-23T14:03:52;3.22;;;3.05;;
21589;SDS011;10957;50.968;6.828;2023-04-23T14:08:53;2.60;;;2.50;;
21589;SDS011;10957;50.968;6.828;2023-04-23T14:13:55;4.20;;;3.90;;
21589;SDS011;10957;50.968;6.828;2023-04-23T14:18:56;3.00;;;2.90;;
21589;SDS011;10957;50.968;6.828;2023-04-23T14:24:00;2.70;;;2.60;;
21589;SDS011;10957;50.968;6.828;2023-04-23T14:29:08;2.67;;;2.58;;
21589;SDS011;10957;50.968;6.828;2023-04-23T14:34:17;2.70;;;2.60;;
21589;SDS011;10957;50.968;6.828;2023-04-23T14:39:18;2.80;;;2.70;;
21589;SDS011;10957;50.968;6.828;2023-04-23T14:44:21;2.78;;;2.67;;
21589;SDS011;10957;50.968;6.828;2023-04-23T14:49:23;2.70;;;2.60;;
21589;SDS011;10957;50.968;6.828;2023-04-23T14:54:24;2.95;;;2.85;;
21589;SDS011;10957;50.968;6.828;2023-04-23T14:59:25;2.90;;;2.80;;
21589;SDS011;10957;50.968;6.828;2023-04-23T15:04:27;2.33;;;2.22;;
21589;SDS011;10957;50.968;6.828;2023-04-23T15:09:28;3.10;;;2.97;;
21589;SDS011;10957;50.968;6.828;2023-04-23T15:14:30;2.70;;;2.60;;
21589;SDS011;10957;50.968;6.828;2023-04-23T15:19:32;3.53;;;3.25;;
21589;SDS011;10957;50.968;6.828;2023-04-23T15:24:33;2.80;;;2.70;;
21589;SDS011;10957;50.968;6.828;2023-04-23T15:29:35;3.63;;;3.42;;
21589;SDS011;10957;50.968;6.828;2023-04-23T15:34:37;2.78;;;2.67;;
21589;SDS011;10957;50.968;6.828;2023-04-23T15:39:38;2.90;;;2.80;;
21589;SDS011;10957;50.968;6.828;2023-04-23T15:44:39;3.30;;;3.20;;
21589;SDS011;10957;50.968;6.828;2023-04-23T15:49:41;3.63;;;3.53;;
21589;SDS011;10957;50.968;6.828;2023-04-23T15:54:42;3.58;;;3.47;;
21589;SDS011;10957;50.968;6.828;2023-04-23T15:59:44;3.70;;;3.60;;
21589;SDS011;10957;50.968;6.828;2023-04-23T16:04:45;3.85;;;3.65;;
21589;SDS011;10957;50.968;6.828;2023-04-23T16:09:46;4.30;;;4.10;;
21589;SDS011;10957;50.968;6.828;2023-04-23T16:14:48;4.72;;;4.45;;
21589;SDS011;10957;50.968;6.828;2023-04-23T16:19:50;4.30;;;4.10;;
21589;SDS011;10957;50.968;6.828;2023-04-23T16:24:51;4.50;;;4.30;;
21589;SDS011;10957;50.968;6.828;2023-04-23T16:29:52;4.43;;;4.22;;
21589;SDS011;10957;50.968;6.828;2023-04-23T16:34:53;4.20;;;4.00;;
21589;SDS011;10957;50.968;6.828;2023-04-23T16:39:55;4.68;;;4.38;;
21589;SDS011;10957;50.968;6.828;2023-04-23T16:44:56;3.70;;;3.60;;
21589;SDS011;10957;50.968;6.828;2023-04-23T16:49:58;3.60;;;3.50;;
21589;SDS011;10957;50.968;6.828;2023-04-23T16:54:59;3.67;;;3.55;;
21589;SDS011;10957;50.968;6.828;2023-04-23T17:00:01;3.60;;;3.50;;
21589;SDS011;10957;50.968;6.828;2023-04-23T17:05:05;6.03;;;3.90;;
21589;SDS011;10957;50.968;6.828;2023-04-23T17:10:07;3.60;;;3.50;;
21589;SDS011;10957;50.968;6.828;2023-04-23T17:15:09;4.00;;;3.80;;
21589;SDS011;10957;50.968;6.828;2023-04-23T17:20:10;4.00;;;3.80;;
21589;SDS011;10957;50.968;6.828;2023-04-23T17:25:12;3.78;;;3.67;;
21589;SDS011;10957;50.968;6.828;2023-04-23T17:30:13;5.40;;;3.78;;
21589;SDS011;10957;50.968;6.828;2023-04-23T17:35:14;4.30;;;4.10;;
21589;SDS011;10957;50.968;6.828;2023-04-23T17:40:16;3.60;;;3.50;;
21589;SDS011;10957;50.968;6.828;2023-04-23T17:45:17;3.70;;;3.60;;
21589;SDS011;10957;50.968;6.828;2023-04-23T17:50:19;3.90;;;3.70;;
21589;SDS011;10957;50.968;6.828;2023-04-23T17:55:21;3.70;;;3.60;;
21589;SDS011;10957;50.968;6.828;2023-04-23T18:00:23;3.67;;;3.58;;
21589;SDS011;10957;50.968;6.828;2023-04-23T18:05:24;4.13;;;3.92;;
21589;SDS011;10957;50.968;6.828;2023-04-23T18:10:28;3.70;;;3.60;;
21589;SDS011;10957;50.968;6.828;2023-04-23T18:15:30;3.50;;;3.40;;
21589;SDS011;10957;50.968;6.828;2023-04-23T18:20:32;3.70;;;3.60;;
21589;SDS011;10957;50.968;6.828;2023-04-23T18:25:37;3.40;;;3.30;;
21589;SDS011;10957;50.968;6.828;2023-04-23T18:30:41;4.03;;;3.83;;
21589;SDS011;10957;50.968;6.828;2023-04-23T18:35:43;3.70;;;3.60;;
21589;SDS011;10957;50.968;6.828;2023-04-23T18:40:47;4.22;;;4.03;;
21589;SDS011;10957;50.968;6.828;2023-04-23T18:45:48;3.70;;;3.60;;
21589;SDS011;10957;50.968;6.828;2023-04-23T18:50:54;4.57;;;4.38;;
21589;SDS011;10957;50.968;6.828;2023-04-23T18:55:57;4.18;;;3.97;;
21589;SDS011;10957;50.968;6.828;2023-04-23T19:00:58;4.55;;;4.35;;
21589;SDS011;10957;50.968;6.828;2023-04-23T19:06:02;4.30;;;4.10;;
21589;SDS011;10957;50.968;6.828;2023-04-23T19:11:07;4.20;;;4.00;;
21589;SDS011;10957;50.968;6.828;2023-04-23T19:16:08;4.30;;;4.10;;
21589;SDS011;10957;50.968;6.828;2023-04-23T19:21:10;4.40;;;4.20;;
21589;SDS011;10957;50.968;6.828;2023-04-23T19:26:12;4.43;;;4.20;;
21589;SDS011;10957;50.968;6.828;2023-04-23T19:31:14;4.30;;;4.10;;
21589;SDS011;10957;50.968;6.828;2023-04-23T19:36:15;4.13;;;3.92;;
21589;SDS011;10957;50.968;6.828;2023-04-23T19:41:16;4.22;;;4.03;;
21589;SDS011;10957;50.968;6.828;2023-04-23T19:46:19;4.80;;;4.60;;
21589;SDS011;10957;50.968;6.828;2023-04-23T19:51:25;4.35;;;4.15;;
21589;SDS011;10957;50.968;6.828;2023-04-23T19:56:32;4.40;;;4.20;;
21589;SDS011;10957;50.968;6.828;2023-04-23T20:01:34;4.20;;;4.00;;
21589;SDS011;10957;50.968;6.828;2023-04-23T20:06:35;4.05;;;3.88;;
21589;SDS011;10957;50.968;6.828;2023-04-23T20:11:37;4.40;;;4.20;;
21589;SDS011;10957;50.968;6.828;2023-04-23T20:16:38;4.70;;;4.50;;
21589;SDS011;10957;50.968;6.828;2023-04-23T20:21:40;4.40;;;4.20;;
21589;SDS011;10957;50.968;6.828;2023-04-23T20:26:43;4.50;;;4.30;;
21589;SDS011;10957;50.968;6.828;2023-04-23T20:31:45;4.07;;;3.90;;
21589;SDS011;10957;50.968;6.828;2023-04-23T20:36:51;4.10;;;3.90;;
21589;SDS011;10957;50.968;6.828;2023-04-23T20:41:58;4.28;;;4.07;;
21589;SDS011;10957;50.968;6.828;2023-04-23T20:47:00;4.20;;;4.00;;
21589;SDS011;10957;50.968;6.828;2023-04-23T20:52:08;14.20;;;5.07;;
21589;SDS011;10957;50.968;6.828;2023-04-23T20:57:09;4.20;;;4.00;;
21589;SDS011;10957;50.968;6.828;2023-04-23T21:02:10;3.90;;;3.80;;
21589;SDS011;10957;50.968;6.828;2023-04-23T21:07:14;4.30;;;4.10;;
21589;SDS011;10957;50.968;6.828;2023-04-23T21:12:15;4.20;;;4.00;;
21589;SDS011;10957;50.968;6.828;2023-04-23T21:17:17;4.20;;;4.00;;
21589;SDS011;10957;50.968;6.828;2023-04-23T21:22:18;4.10;;;3.90;;
21589;SDS011;10957;50.968;6.828;2023-04-23T21:27:19;4.10;;;3.90;;
21589;SDS011;10957;50.968;6.828;2023-04-23T21:32:21;3.90;;;3.80;;
21589;SDS011;10957;50.968;6.828;2023-04-23T21:37:22;4.07;;;3.88;;
21589;SDS011;10957;50.968;6.828;2023-04-23T21:42:23;3.70;;;3.60;;
21589;SDS011;10957;50.968;6.828;2023-04-23T21:47:25;3.78;;;3.65;;
21589;SDS011;10957;50.968;6.828;2023-04-23T21:52:26;4.00;;;3.80;;
21589;SDS011;10957;50.968;6.828;2023-04-23T21:57:31;4.10;;;3.90;;
21589;SDS011;10957;50.968;6.828;2023-04-23T22:02:36;3.60;;;3.50;;
21589;SDS011;10957;50.968;6.828;2023-04-23T22:07:37;3.55;;;3.45;;
21589;SDS011;10957;50.968;6.828;2023-04-23T22:12:46;3.70;;;3.60;;
21589;SDS011;10957;50.968;6.828;2023-04-23T22:17:51;3.78;;;3.67;;
21589;SDS011;10957;50.968;6.828;2023-04-23T22:22:53;4.10;;;3.90;;
21589;SDS011;10957;50.968;6.828;2023-04-23T22:27:55;3.80;;;3.70;;
21589;SDS011;10957;50.968;6.828;2023-04-23T22:32:56;4.10;;;3.90;;
21589;SDS011;10957;50.968;6.828;2023-04-23T22:37:57;4.20;;;4.00;;
21589;SDS011;10957;50.968;6.828;2023-04-23T22:43:01;4.40;;;4.20;;
21589;SDS011;10957;50.968;6.828;2023-04-23T22:48:06;4.70;;;4.50;;
21589;SDS011;10957;50.968;6.828;2023-04-23T22:53:10;4.20;;;4.00;;
21589;SDS011;10957;50.968;6.828;2023-04-23T22:58:14;4.03;;;3.88;;
21589;SDS011;10957;50.968;6.828;2023-04-23T23:03:16;4.10;;;3.90;;
21589;SDS011;10957;50.968;6.828;2023-04-23T23:08:17;4.20;;;4.00;;
21589;SDS011;10957;50.968;6.828;2023-04-23T23:13:24;4.13;;;3.92;;
21589;SDS011;10957;50.968;6.828;2023-04-23T23:18:25;4.13;;;3.92;;
21589;SDS011;10957;50.968;6.828;2023-04-23T23:23:29;4.35;;;4.15;;
21589;SDS011;10957;50.968;6.828;2023-04-23T23:28:31;4.32;;;4.13;;
21589;SDS011;10957;50.968;6.828;2023-04-23T23:33:32;4.30;;;4.10;;
21589;SDS011;10957;50.968;6.828;2023-04-23T23:38:35;4.38;;;4.18;;
21589;SDS011;10957;50.968;6.828;2023-04-23T23:43:37;4.40;;;4.20;;
21589;SDS011;10957;50.968;6.828;2023-04-23T23:48:38;4.20;;;4.00;;
21589;SDS011;10957;50.968;6.828;2023-04-23T23:53:39;4.47;;;4.28;;
21589;SDS011;10957;50.968;6.828;2023-04-23T23:58:41;4.20;;;4.00;;
